SLVR/VVI METAR and TAF weather

Enter ICAO airport designator
Station Type Date Time Source
SLVR METAR 2018/12/13 08:00 UTC NOAA

SLVR 130800Z 35005KT 9999 SCT007 FEW030CB BKN070 24/22 Q1011


Station Type Date Time Source
SLVR Decoded METAR 2018/12/13 08:00 UTC NOAA

Viru-Viru, Bolivia (SLVR) 17-38S 063-08W
Dec 13, 2018 - 03:00 AM EST / 2018.12.13 0800 UTC
Wind: from the N (350 degrees) at 6 MPH (5 KT):0
Visibility: greater than 7 mile(s):0
Sky conditions: mostly cloudy
Weather: Cumulonimbus clouds observed
Temperature: 75 F (24 C)
Dew Point: 71 F (22 C)
Relative Humidity: 88%
Pressure (altimeter): 29.85 in. Hg (1011 hPa)
ob: SLVR 130800Z 35005KT 9999 SCT007 FEW030CB BKN070 24/22 Q1011
cycle: 8

Station Type Date Time Source
SLVR TAF 2018/12/13 06:28 UTC NOAA

TAF SLVR 130400Z 1306/1406 34006KT 9999 SCT015 TX33/1319Z TN24/1310Z PROB40
TEMPO 1308/1312 6000 SHRA BKN005 BKN020 FEW030CB
BECMG 1315/ 1317 34015G30KT SCT013 BKN020 FEW027TCU PROB40
TEMPO 1319/1322 8000 SHRA
BECMG 1323/1401 34010KT SCT017 SCT080


Example: see airport list